createdAt,value
2018-09-04T00:00:09.398Z,27.92
2018-09-04T00:00:47.644Z,27.93
2018-09-04T00:01:25.814Z,27.95
2018-09-04T00:02:03.925Z,27.98
2018-09-04T00:02:41.877Z,27.99
2018-09-04T00:03:19.817Z,27.98
2018-09-04T00:03:57.739Z,28.01
2018-09-04T00:04:35.675Z,28.03
2018-09-04T00:05:13.686Z,28.04
2018-09-04T00:05:51.829Z,28.06
2018-09-04T00:06:29.869Z,28.06
2018-09-04T00:07:07.928Z,28.09
2018-09-04T00:07:46.219Z,28.12
2018-09-04T00:08:24.229Z,28.14
2018-09-04T00:09:02.291Z,28.16
2018-09-04T00:09:40.393Z,28.19
2018-09-04T00:10:19.199Z,28.23
2018-09-04T00:10:57.324Z,28.26
2018-09-04T00:11:35.466Z,28.29
2018-09-04T00:12:13.642Z,28.33
2018-09-04T00:12:51.788Z,28.36
2018-09-04T00:13:29.968Z,28.41
2018-09-04T00:14:08.698Z,28.46
2018-09-04T00:14:46.966Z,28.52
2018-09-04T00:15:25.321Z,28.54
2018-09-04T00:16:07.147Z,28.55
2018-09-04T00:16:45.453Z,28.56
2018-09-04T00:17:23.707Z,28.54
2018-09-04T00:18:01.877Z,28.53
2018-09-04T00:18:40.922Z,28.52
2018-09-04T00:19:19.179Z,28.50
2018-09-04T00:19:58.609Z,28.53
2018-09-04T00:20:37.338Z,28.53
2018-09-04T00:21:16.137Z,28.52
2018-09-04T00:21:54.783Z,28.54
2018-09-04T00:22:33.357Z,28.57
2018-09-04T00:23:11.767Z,28.57
2018-09-04T00:23:50.406Z,28.60
2018-09-04T00:24:30.133Z,28.59
2018-09-04T00:25:09.006Z,28.61
2018-09-04T00:25:47.778Z,28.60
2018-09-04T00:26:26.311Z,28.61
2018-09-04T00:27:07.847Z,28.62
2018-09-04T00:27:46.549Z,28.65
2018-09-04T00:28:25.286Z,28.68
2018-09-04T00:29:04.381Z,28.72
2018-09-04T00:29:44.326Z,28.75
2018-09-04T00:30:23.023Z,28.78
2018-09-04T00:31:01.769Z,28.80
2018-09-04T00:31:41.630Z,28.84
2018-09-04T00:32:20.438Z,28.87
2018-09-04T00:32:59.084Z,28.87
2018-09-04T00:33:38.150Z,28.92
2018-09-04T00:34:17.024Z,28.91
2018-09-04T00:34:55.716Z,28.91
2018-09-04T00:35:34.996Z,28.91
2018-09-04T00:36:14.066Z,28.92
2018-09-04T00:36:52.773Z,28.91
2018-09-04T00:37:32.530Z,28.90
2018-09-04T00:38:11.501Z,28.90
2018-09-04T00:38:50.326Z,28.88
2018-09-04T00:39:28.930Z,28.89
2018-09-04T00:40:07.754Z,28.92
2018-09-04T00:40:46.420Z,28.92
2018-09-04T00:41:25.060Z,28.92
2018-09-04T00:42:46.115Z,28.95
2018-09-04T00:43:25.381Z,28.99
2018-09-04T00:44:04.149Z,29.03
2018-09-04T00:44:42.803Z,29.06
2018-09-04T00:45:22.338Z,29.08
2018-09-04T00:46:01.074Z,29.09
2018-09-04T00:46:39.986Z,29.12
2018-09-04T00:47:18.898Z,29.13
2018-09-04T00:47:57.662Z,29.13
2018-09-04T00:48:36.275Z,29.15
2018-09-04T00:49:15.356Z,29.15
2018-09-04T00:49:53.917Z,29.14
2018-09-04T00:50:33.518Z,29.15
2018-09-04T00:51:13.807Z,29.16
2018-09-04T00:51:52.484Z,29.18
2018-09-04T00:52:30.994Z,29.20
2018-09-04T00:53:09.954Z,29.21
2018-09-04T00:53:48.343Z,29.23
2018-09-04T00:54:27.122Z,29.26
2018-09-04T00:55:05.849Z,29.29
2018-09-04T00:55:44.368Z,29.32
2018-09-04T00:56:22.580Z,29.34
2018-09-04T00:57:01.248Z,29.35
2018-09-04T00:57:39.301Z,29.40
2018-09-04T00:58:17.699Z,29.44
2018-09-04T00:59:05.665Z,29.49
2018-09-04T00:59:43.884Z,29.54
2018-09-04T01:00:26.224Z,29.58
2018-09-04T01:01:04.310Z,29.62
2018-09-04T01:01:42.681Z,29.67
2018-09-04T01:02:20.701Z,29.70
2018-09-04T01:02:59.697Z,29.72
2018-09-04T01:03:37.712Z,29.75
2018-09-04T01:04:15.809Z,29.78
2018-09-04T01:04:53.733Z,29.80
2018-09-04T01:05:31.597Z,29.80
2018-09-04T01:06:10.592Z,29.80
2018-09-04T01:06:48.597Z,29.78
2018-09-04T01:07:26.674Z,29.74
2018-09-04T01:08:05.880Z,29.72
2018-09-04T01:08:43.980Z,29.69
2018-09-04T01:09:24.808Z,29.65
2018-09-04T01:10:02.737Z,29.58
2018-09-04T01:10:40.715Z,29.52
2018-09-04T01:11:18.725Z,29.43
2018-09-04T01:11:56.740Z,29.34
2018-09-04T01:12:34.924Z,29.27
2018-09-04T01:13:12.943Z,29.19
2018-09-04T01:13:50.997Z,29.14
2018-09-04T01:14:29.120Z,29.09
2018-09-04T01:15:07.217Z,28.98
2018-09-04T01:15:45.422Z,28.92
2018-09-04T01:16:23.493Z,28.88
2018-09-04T01:17:01.996Z,28.85
2018-09-04T01:17:40.236Z,28.81
2018-09-04T01:18:18.288Z,28.78
2018-09-04T01:18:56.308Z,28.75
2018-09-04T01:19:34.285Z,28.72
2018-09-04T01:20:12.204Z,28.69
2018-09-04T01:20:50.320Z,28.65
2018-09-04T01:21:28.376Z,28.63
2018-09-04T01:22:06.516Z,28.59
2018-09-04T01:22:44.789Z,28.55
2018-09-04T01:23:22.791Z,28.51
2018-09-04T01:24:00.899Z,28.49
2018-09-04T01:24:39.121Z,28.44
2018-09-04T01:25:17.137Z,28.41
2018-09-04T01:25:55.213Z,28.40
2018-09-04T01:26:33.269Z,28.36
2018-09-04T01:27:11.325Z,28.31
2018-09-04T01:27:49.442Z,28.29
2018-09-04T01:28:27.460Z,28.26
2018-09-04T01:29:05.665Z,28.24
2018-09-04T01:29:43.609Z,28.21
2018-09-04T01:30:22.207Z,28.18
2018-09-04T01:31:00.201Z,28.16
2018-09-04T01:31:38.141Z,28.14
2018-09-04T01:32:17.204Z,28.12
2018-09-04T01:32:55.333Z,28.11
2018-09-04T01:33:33.403Z,28.08
2018-09-04T01:34:11.500Z,28.06
2018-09-04T01:34:49.604Z,28.05
2018-09-04T01:35:27.743Z,28.03
2018-09-04T01:36:05.817Z,28.02
2018-09-04T01:36:43.945Z,28.00
2018-09-04T01:37:22.096Z,27.98
2018-09-04T01:38:00.222Z,27.97
2018-09-04T01:38:38.404Z,27.96
2018-09-04T01:39:16.336Z,27.96
2018-09-04T01:39:54.521Z,27.95
2018-09-04T01:40:32.508Z,27.95
2018-09-04T01:41:10.607Z,27.95
2018-09-04T01:41:48.642Z,27.96
2018-09-04T01:42:26.689Z,27.96
2018-09-04T01:43:04.666Z,27.97
2018-09-04T01:43:42.838Z,27.96
2018-09-04T01:44:20.969Z,27.95
2018-09-04T01:44:58.964Z,27.96
2018-09-04T01:45:36.930Z,27.96
2018-09-04T01:46:15.036Z,27.96
2018-09-04T01:46:53.041Z,27.98
2018-09-04T01:47:31.090Z,27.97
2018-09-04T01:48:09.223Z,27.99
2018-09-04T01:48:47.190Z,27.99
2018-09-04T01:49:25.161Z,28.00
2018-09-04T01:50:03.205Z,28.00
2018-09-04T01:50:41.247Z,27.99
2018-09-04T01:51:19.365Z,28.00
2018-09-04T01:51:57.669Z,27.99
2018-09-04T01:52:35.698Z,28.00
2018-09-04T01:53:14.124Z,27.99
2018-09-04T01:53:52.295Z,27.99
2018-09-04T01:54:30.357Z,27.99
2018-09-04T01:55:08.440Z,27.98
2018-09-04T01:55:46.393Z,27.99
2018-09-04T01:56:24.598Z,27.98
2018-09-04T01:57:02.644Z,27.96
2018-09-04T01:57:40.652Z,27.93
2018-09-04T01:58:19.961Z,27.94
2018-09-04T01:58:58.060Z,27.92
2018-09-04T01:59:36.335Z,27.92
2018-09-04T02:00:14.482Z,27.91
2018-09-04T02:00:52.672Z,27.89
2018-09-04T02:01:30.953Z,27.87
2018-09-04T02:02:09.077Z,27.86
2018-09-04T02:02:47.058Z,27.85
2018-09-04T02:03:25.036Z,27.82
2018-09-04T02:04:03.014Z,27.81
2018-09-04T02:04:41.208Z,27.81
2018-09-04T02:05:19.245Z,27.79
2018-09-04T02:05:57.162Z,27.79
2018-09-04T02:06:35.144Z,27.80
2018-09-04T02:07:13.138Z,27.80
2018-09-04T02:07:51.195Z,27.80
2018-09-04T02:08:29.247Z,27.78
2018-09-04T02:09:07.449Z,27.79
2018-09-04T02:09:45.476Z,27.79
2018-09-04T02:10:23.465Z,27.79
2018-09-04T02:11:01.680Z,27.76
2018-09-04T02:11:39.691Z,27.78
2018-09-04T02:12:17.830Z,27.77
2018-09-04T02:12:55.860Z,27.79
2018-09-04T02:13:33.904Z,27.80
2018-09-04T02:14:11.785Z,27.81
2018-09-04T02:14:49.823Z,27.82
2018-09-04T02:15:27.985Z,27.83
2018-09-04T02:16:06.030Z,27.86
2018-09-04T02:16:44.109Z,27.87
2018-09-04T02:17:22.156Z,27.89
2018-09-04T02:18:00.331Z,27.91
2018-09-04T02:18:38.265Z,27.92
2018-09-04T02:19:16.260Z,27.92
2018-09-04T02:19:54.310Z,27.94
2018-09-04T02:20:32.475Z,27.95
2018-09-04T02:21:10.577Z,27.96
2018-09-04T02:21:48.594Z,27.95
2018-09-04T02:22:26.672Z,27.96
2018-09-04T02:23:04.707Z,27.97
2018-09-04T02:23:42.707Z,27.97
2018-09-04T02:24:20.747Z,27.95
2018-09-04T02:24:58.681Z,27.94
2018-09-04T02:25:36.734Z,27.93
2018-09-04T02:26:14.768Z,27.94
2018-09-04T02:26:52.727Z,27.95
2018-09-04T02:27:30.710Z,27.98
2018-09-04T02:28:08.674Z,28.01
2018-09-04T02:28:46.735Z,28.03
2018-09-04T02:29:24.695Z,28.06
2018-09-04T02:30:02.803Z,28.07
2018-09-04T02:30:40.833Z,28.09
2018-09-04T02:31:18.988Z,28.12
2018-09-04T02:31:56.905Z,28.14
2018-09-04T02:32:34.967Z,28.16
2018-09-04T02:33:14.091Z,28.17
2018-09-04T02:33:52.222Z,28.19
2018-09-04T02:34:30.341Z,28.23
2018-09-04T02:35:08.671Z,28.25
2018-09-04T02:35:46.895Z,28.28
2018-09-04T02:36:24.909Z,28.30
2018-09-04T02:37:02.876Z,28.33
2018-09-04T02:37:40.825Z,28.36
2018-09-04T02:38:18.845Z,28.39
2018-09-04T02:38:56.909Z,28.41
2018-09-04T02:39:34.964Z,28.41
2018-09-04T02:40:12.970Z,28.41
2018-09-04T02:40:50.969Z,28.41
2018-09-04T02:41:29.043Z,28.41
2018-09-04T02:42:06.970Z,28.40
2018-09-04T02:42:45.008Z,28.41
2018-09-04T02:43:23.134Z,28.41
2018-09-04T02:44:01.126Z,28.37
2018-09-04T02:44:39.307Z,28.38
2018-09-04T02:45:17.238Z,28.34
2018-09-04T02:45:55.277Z,28.34
2018-09-04T02:46:33.198Z,28.30
2018-09-04T02:47:11.303Z,28.31
2018-09-04T02:47:49.335Z,28.30
2018-09-04T02:48:27.522Z,28.29
2018-09-04T02:49:05.572Z,28.28
2018-09-04T02:49:43.494Z,28.29
2018-09-04T02:50:21.664Z,28.26
2018-09-04T02:50:59.644Z,28.27
2018-09-04T02:51:37.744Z,28.28
2018-09-04T02:52:16.694Z,28.30
2018-09-04T02:52:54.677Z,28.27
2018-09-04T02:53:32.625Z,28.32
2018-09-04T02:54:10.667Z,28.34
2018-09-04T02:54:48.651Z,28.38
2018-09-04T02:55:26.747Z,28.41
2018-09-04T02:56:04.744Z,28.44
2018-09-04T02:56:42.820Z,28.50
2018-09-04T02:57:20.864Z,28.53
2018-09-04T02:57:58.884Z,28.56
2018-09-04T02:58:36.987Z,28.59
2018-09-04T02:59:15.126Z,28.59
2018-09-04T02:59:53.101Z,28.62
2018-09-04T03:00:31.240Z,28.62
2018-09-04T03:01:09.208Z,28.61
2018-09-04T03:01:47.512Z,28.60
2018-09-04T03:02:25.654Z,28.61
2018-09-04T03:03:03.603Z,28.60
2018-09-04T03:03:41.688Z,28.63
2018-09-04T03:04:19.811Z,28.68
2018-09-04T03:04:57.861Z,28.71
2018-09-04T03:05:35.970Z,28.73
2018-09-04T03:06:14.226Z,28.73
2018-09-04T03:06:53.494Z,28.74
2018-09-04T03:07:31.612Z,28.76
2018-09-04T03:08:09.788Z,28.77
2018-09-04T03:08:47.886Z,28.78
2018-09-04T03:09:45.565Z,28.82
2018-09-04T03:10:23.543Z,28.83
2018-09-04T03:11:01.617Z,28.83
2018-09-04T03:11:39.638Z,28.85
2018-09-04T03:12:17.674Z,28.87
2018-09-04T03:12:55.730Z,28.91
2018-09-04T03:13:33.837Z,28.93
2018-09-04T03:14:11.898Z,28.93
2018-09-04T03:14:50.007Z,28.95
2018-09-04T03:16:03.796Z,28.99
2018-09-04T03:16:41.889Z,29.01
2018-09-04T03:17:19.838Z,28.99
2018-09-04T03:18:02.286Z,29.04
2018-09-04T03:18:40.224Z,29.07
2018-09-04T03:19:18.203Z,29.10
2018-09-04T03:19:56.332Z,29.12
2018-09-04T03:21:30.289Z,29.15
2018-09-04T03:22:15.880Z,29.16
2018-09-04T03:22:54.136Z,29.15
2018-09-04T03:23:31.993Z,29.14
2018-09-04T03:24:10.069Z,29.14
2018-09-04T03:24:48.985Z,29.14
2018-09-04T03:25:27.040Z,29.13
2018-09-04T03:26:05.113Z,29.12
2018-09-04T03:26:43.456Z,29.10
2018-09-04T03:27:21.597Z,29.09
2018-09-04T03:27:59.668Z,29.09
2018-09-04T03:28:42.929Z,29.05
2018-09-04T03:29:20.964Z,29.01
2018-09-04T03:29:58.901Z,29.00
2018-09-04T03:30:36.925Z,28.95
2018-09-04T03:31:16.467Z,28.95
2018-09-04T03:31:54.547Z,28.96
2018-09-04T03:32:32.625Z,28.96
2018-09-04T03:33:10.401Z,28.94
2018-09-04T03:33:48.747Z,28.90
2018-09-04T03:34:26.854Z,28.88
2018-09-04T03:35:04.833Z,28.79
2018-09-04T03:35:42.980Z,28.78
2018-09-04T03:36:20.929Z,28.79
2018-09-04T03:36:58.939Z,28.81
2018-09-04T03:37:36.971Z,28.81
2018-09-04T03:38:15.017Z,28.78
2018-09-04T03:38:53.064Z,28.80
2018-09-04T03:39:31.650Z,28.78
2018-09-04T03:40:09.669Z,28.75
2018-09-04T03:40:47.941Z,28.74
2018-09-04T03:41:26.105Z,28.78
2018-09-04T03:42:04.052Z,28.78
2018-09-04T03:42:42.131Z,28.79
2018-09-04T03:43:20.197Z,28.77
2018-09-04T03:43:58.461Z,28.79
2018-09-04T03:44:36.469Z,28.80
2018-09-04T03:45:14.471Z,28.81
2018-09-04T03:45:52.384Z,28.80
2018-09-04T03:46:30.472Z,28.80
2018-09-04T03:47:09.072Z,28.84
2018-09-04T03:47:57.433Z,28.88
2018-09-04T03:48:35.561Z,28.89
2018-09-04T03:49:13.530Z,28.92
2018-09-04T03:49:51.545Z,28.90
2018-09-04T03:50:29.622Z,28.85
2018-09-04T03:51:07.751Z,28.84
2018-09-04T03:51:45.849Z,28.88
2018-09-04T03:52:23.925Z,28.88
2018-09-04T03:53:02.286Z,28.92
2018-09-04T03:53:40.242Z,28.90
2018-09-04T03:54:18.211Z,28.89
2018-09-04T03:54:56.298Z,28.87
2018-09-04T03:55:34.295Z,28.88
2018-09-04T03:56:12.228Z,28.92
2018-09-04T03:56:50.152Z,28.93
2018-09-04T03:57:28.820Z,28.93
2018-09-04T03:58:06.784Z,28.96
2018-09-04T03:58:44.734Z,28.99
2018-09-04T03:59:22.825Z,29.00
2018-09-04T04:00:00.968Z,29.03
2018-09-04T04:00:38.941Z,29.02
2018-09-04T04:01:17.015Z,29.08
2018-09-04T04:01:55.085Z,29.06
2018-09-04T04:02:33.067Z,29.04
2018-09-04T04:03:11.160Z,29.05
2018-09-04T04:03:49.295Z,29.04
2018-09-04T04:04:27.575Z,29.03
2018-09-04T04:05:05.699Z,29.06
2018-09-04T04:05:43.627Z,29.09
2018-09-04T04:06:21.845Z,29.11
2018-09-04T04:06:59.922Z,29.15
2018-09-04T04:07:37.837Z,29.20
2018-09-04T04:08:16.586Z,29.24
2018-09-04T04:08:54.811Z,29.26
2018-09-04T04:09:33.685Z,29.29
2018-09-04T04:10:11.732Z,29.31
2018-09-04T04:10:49.923Z,29.32
2018-09-04T04:11:28.237Z,29.37
2018-09-04T04:12:07.520Z,29.38
2018-09-04T04:12:45.582Z,29.36
2018-09-04T04:13:23.789Z,29.42
2018-09-04T04:14:01.779Z,29.42
2018-09-04T04:14:39.833Z,29.46
2018-09-04T04:15:17.773Z,29.46
2018-09-04T04:15:55.779Z,29.43
2018-09-04T04:16:33.784Z,29.49
2018-09-04T04:17:12.157Z,29.51
2018-09-04T04:17:50.357Z,29.48
2018-09-04T04:18:28.427Z,29.53
2018-09-04T04:19:06.365Z,29.51
2018-09-04T04:19:44.481Z,29.57
2018-09-04T04:20:22.589Z,29.58
2018-09-04T04:21:01.752Z,29.69
2018-09-04T04:21:39.671Z,29.80
2018-09-04T04:22:17.732Z,29.90
2018-09-04T04:22:55.680Z,30.01
2018-09-04T04:23:33.685Z,30.06
2018-09-04T04:24:11.628Z,30.04
2018-09-04T04:24:49.913Z,30.01
2018-09-04T04:25:28.081Z,29.96
2018-09-04T04:26:06.759Z,29.92
2018-09-04T04:26:44.790Z,29.88
2018-09-04T04:27:22.766Z,29.90
2018-09-04T04:28:00.791Z,29.88
2018-09-04T04:28:38.992Z,29.85
2018-09-04T04:29:17.125Z,29.87
2018-09-04T04:29:55.244Z,29.89
2018-09-04T04:30:33.258Z,29.85
2018-09-04T04:31:11.208Z,29.86
2018-09-04T04:31:49.196Z,29.84
2018-09-04T04:32:27.981Z,29.87
2018-09-04T04:33:06.934Z,29.88
2018-09-04T04:33:45.045Z,29.78
2018-09-04T04:34:23.378Z,29.84
2018-09-04T04:35:01.418Z,29.91
2018-09-04T04:35:39.769Z,29.86
2018-09-04T04:36:17.822Z,29.88
2018-09-04T04:36:55.965Z,29.94
2018-09-04T04:37:33.981Z,29.94
2018-09-04T04:38:12.084Z,29.90
2018-09-04T04:38:50.057Z,29.95
2018-09-04T04:39:29.010Z,29.98
2018-09-04T04:40:08.724Z,30.02
2018-09-04T04:40:46.770Z,29.99
2018-09-04T04:41:24.977Z,30.00
2018-09-04T04:42:02.920Z,30.03
2018-09-04T04:42:40.899Z,30.12
2018-09-04T04:43:19.034Z,30.12
2018-09-04T04:43:57.274Z,30.11
2018-09-04T04:44:35.297Z,30.14
2018-09-04T04:45:13.728Z,30.23
2018-09-04T04:45:51.823Z,30.23
2018-09-04T04:46:30.782Z,30.26
2018-09-04T04:47:08.898Z,30.24
2018-09-04T04:47:50.167Z,30.28
2018-09-04T04:48:28.208Z,30.31
2018-09-04T04:49:06.339Z,30.40
2018-09-04T04:49:44.442Z,30.41
2018-09-04T04:50:22.630Z,30.50
2018-09-04T04:51:00.625Z,30.52
2018-09-04T04:51:38.884Z,30.49
2018-09-04T04:52:17.029Z,30.57
2018-09-04T04:52:55.100Z,30.60
2018-09-04T04:53:33.303Z,30.69
2018-09-04T04:54:11.269Z,30.70
2018-09-04T04:54:49.226Z,30.77
2018-09-04T04:55:27.228Z,30.88
2018-09-04T04:56:07.063Z,30.97
2018-09-04T04:56:45.100Z,31.04
2018-09-04T04:57:23.418Z,31.01
2018-09-04T04:58:01.692Z,31.06
2018-09-04T04:58:39.656Z,31.13
2018-09-04T04:59:17.824Z,31.19
2018-09-04T04:59:56.261Z,31.26
2018-09-04T05:00:34.334Z,31.34
2018-09-04T05:01:16.866Z,31.48
2018-09-04T05:01:54.982Z,31.55
2018-09-04T05:02:33.019Z,31.61
2018-09-04T05:03:11.067Z,31.64
2018-09-04T05:03:49.045Z,31.71
2018-09-04T05:04:30.347Z,31.76
2018-09-04T05:05:08.640Z,31.83
2018-09-04T05:05:46.610Z,31.85
2018-09-04T05:06:24.637Z,31.75
2018-09-04T05:07:02.543Z,31.70
2018-09-04T05:07:40.553Z,31.64
2018-09-04T05:08:18.559Z,31.58
2018-09-04T05:08:56.619Z,31.69
2018-09-04T05:09:34.726Z,31.63
2018-09-04T05:10:12.640Z,31.63
2018-09-04T05:10:51.376Z,31.69
2018-09-04T05:11:29.704Z,31.71
2018-09-04T05:12:07.798Z,31.70
2018-09-04T05:12:45.837Z,31.81
2018-09-04T05:13:24.145Z,31.82
2018-09-04T05:14:01.964Z,31.96
2018-09-04T05:14:40.836Z,32.08
2018-09-04T05:15:18.754Z,32.24
2018-09-04T05:15:56.810Z,32.40
2018-09-04T05:16:35.006Z,32.53
2018-09-04T05:17:12.937Z,32.54
2018-09-04T05:17:51.166Z,32.50
2018-09-04T05:18:29.089Z,32.43
2018-09-04T05:19:07.074Z,32.53
2018-09-04T05:19:45.224Z,32.58
2018-09-04T05:20:25.782Z,32.59
2018-09-04T05:21:03.777Z,32.58
2018-09-04T05:21:41.761Z,32.49
2018-09-04T05:22:19.938Z,32.45
2018-09-04T05:22:57.985Z,32.32
2018-09-04T05:23:35.977Z,32.28
2018-09-04T05:24:13.949Z,32.18
2018-09-04T05:24:52.773Z,32.05
2018-09-04T05:25:30.797Z,31.98
2018-09-04T05:26:08.909Z,31.78
2018-09-04T05:26:46.801Z,31.72
2018-09-04T05:27:24.804Z,31.65
2018-09-04T05:28:02.815Z,31.53
2018-09-04T05:28:40.786Z,31.39
2018-09-04T05:29:18.782Z,31.33
2018-09-04T05:29:56.658Z,31.28
2018-09-04T05:30:34.696Z,31.28
2018-09-04T05:31:13.634Z,31.24
2018-09-04T05:32:11.322Z,31.09
2018-09-04T05:32:53.386Z,31.02
2018-09-04T05:33:46.029Z,30.94
2018-09-04T05:34:25.865Z,30.84
2018-09-04T05:35:03.899Z,30.80
2018-09-04T05:35:47.268Z,30.75
2018-09-04T05:36:25.282Z,30.66
2018-09-04T05:37:03.231Z,30.56
2018-09-04T05:37:42.629Z,30.45
2018-09-04T05:38:21.562Z,30.40
2018-09-04T05:38:59.570Z,30.39
2018-09-04T05:39:37.744Z,30.31
2018-09-04T05:40:16.740Z,30.19
2018-09-04T05:40:54.839Z,30.16
2018-09-04T05:41:32.870Z,30.07
2018-09-04T05:42:14.981Z,30.02
2018-09-04T05:42:59.525Z,29.98
2018-09-04T05:43:45.504Z,29.99
2018-09-04T05:44:23.457Z,29.91
2018-09-04T05:45:01.439Z,29.84
2018-09-04T05:45:40.701Z,29.76
2018-09-04T05:46:23.530Z,29.72
2018-09-04T05:47:01.826Z,29.63
2018-09-04T05:47:41.518Z,29.69
2018-09-04T05:48:19.789Z,29.63
2018-09-04T05:48:58.811Z,29.67
2018-09-04T05:49:37.415Z,29.65
2018-09-04T05:50:15.669Z,29.50
2018-09-04T05:50:53.673Z,29.49
2018-09-04T05:51:31.737Z,29.49
2018-09-04T05:52:09.768Z,29.45
2018-09-04T05:52:47.825Z,29.39
2018-09-04T05:53:25.761Z,29.36
2018-09-04T05:54:03.769Z,29.39
2018-09-04T05:54:43.609Z,29.33
2018-09-04T05:55:24.092Z,29.28
2018-09-04T05:56:02.556Z,29.24
2018-09-04T05:56:40.456Z,29.24
2018-09-04T05:57:18.726Z,29.22
2018-09-04T05:57:56.734Z,29.20
2018-09-04T05:58:34.835Z,29.15
2018-09-04T05:59:12.827Z,29.11
2018-09-04T05:59:50.853Z,29.04
2018-09-04T06:00:32.914Z,29.02
2018-09-04T06:01:11.865Z,29.00
2018-09-04T06:01:50.118Z,29.00
2018-09-04T06:02:28.555Z,29.00
2018-09-04T06:03:06.552Z,28.98
2018-09-04T06:03:44.572Z,28.90
2018-09-04T06:04:22.591Z,28.90
2018-09-04T06:05:00.576Z,28.84
2018-09-04T06:05:38.528Z,28.87
2018-09-04T06:06:16.717Z,28.87
2018-09-04T06:06:54.605Z,28.83
2018-09-04T06:07:32.753Z,28.85
2018-09-04T06:08:10.737Z,28.87
2018-09-04T06:08:48.712Z,28.91
2018-09-04T06:09:26.767Z,28.93
2018-09-04T06:10:04.769Z,28.99
2018-09-04T06:10:42.724Z,28.99
2018-09-04T06:11:20.761Z,29.00
2018-09-04T06:11:58.767Z,29.04
2018-09-04T06:12:36.755Z,29.11
2018-09-04T06:13:15.120Z,29.16
2018-09-04T06:13:53.085Z,29.19
2018-09-04T06:14:31.035Z,29.18
2018-09-04T06:15:09.141Z,29.23
2018-09-04T06:15:47.095Z,29.21
2018-09-04T06:16:25.132Z,29.31
2018-09-04T06:17:03.204Z,29.33
2018-09-04T06:17:41.430Z,29.43
2018-09-04T06:18:19.531Z,29.52
2018-09-04T06:18:57.498Z,29.58
2018-09-04T06:19:35.597Z,29.72
2018-09-04T06:20:13.746Z,29.78
2018-09-04T06:20:51.774Z,29.82
2018-09-04T06:21:29.686Z,29.88
2018-09-04T06:22:07.647Z,29.93
2018-09-04T06:22:45.871Z,30.06
2018-09-04T06:23:24.676Z,30.12
2018-09-04T06:24:02.672Z,30.17
2018-09-04T06:24:40.729Z,30.23
2018-09-04T06:25:19.604Z,30.25
2018-09-04T06:25:57.646Z,30.16
2018-09-04T06:26:35.756Z,30.20
2018-09-04T06:27:13.932Z,30.14
2018-09-04T06:27:52.307Z,30.16
2018-09-04T06:28:30.432Z,30.14
2018-09-04T06:29:08.582Z,30.05
2018-09-04T06:29:46.566Z,30.04
2018-09-04T06:30:24.588Z,30.01
2018-09-04T06:31:02.654Z,29.98
2018-09-04T06:31:40.626Z,29.98
2018-09-04T06:32:18.638Z,29.89
2018-09-04T06:32:56.691Z,29.85
2018-09-04T06:33:34.874Z,29.86
2018-09-04T06:34:13.044Z,29.79
2018-09-04T06:34:51.162Z,29.85
2018-09-04T06:35:29.476Z,29.78
2018-09-04T06:36:07.569Z,29.81
2018-09-04T06:36:45.662Z,29.83
2018-09-04T06:37:23.905Z,29.80
2018-09-04T06:38:01.854Z,29.80
2018-09-04T06:38:39.905Z,29.78
2018-09-04T06:39:17.944Z,29.74
2018-09-04T06:39:56.249Z,29.74
2018-09-04T06:40:34.246Z,29.78
2018-09-04T06:41:12.221Z,29.83
2018-09-04T06:41:50.219Z,29.84
2018-09-04T06:42:28.221Z,29.89
2018-09-04T06:43:06.211Z,29.93
2018-09-04T06:43:44.257Z,29.93
2018-09-04T06:44:22.390Z,30.00
2018-09-04T06:45:00.509Z,30.00
2018-09-04T06:45:38.997Z,30.08
2018-09-04T06:46:17.061Z,30.12
2018-09-04T06:46:55.073Z,30.16
2018-09-04T06:47:32.981Z,30.14
2018-09-04T06:48:11.112Z,30.15
2018-09-04T06:48:49.071Z,30.23
2018-09-04T06:49:26.952Z,30.16
2018-09-04T06:50:05.301Z,30.23
2018-09-04T06:50:43.860Z,30.31
2018-09-04T06:51:22.065Z,30.35
2018-09-04T06:51:59.978Z,30.28
2018-09-04T06:52:38.157Z,30.31
2018-09-04T06:53:16.176Z,30.39
2018-09-04T06:53:54.246Z,30.40
2018-09-04T06:54:32.894Z,30.43
2018-09-04T06:55:10.915Z,30.52
2018-09-04T06:55:48.844Z,30.56
2018-09-04T06:56:26.801Z,30.61
2018-09-04T06:57:04.729Z,30.70
2018-09-04T06:57:42.997Z,30.70
2018-09-04T06:58:20.937Z,30.66
2018-09-04T06:58:58.876Z,30.67
2018-09-04T06:59:36.851Z,30.75
2018-09-04T07:00:16.819Z,30.83
2018-09-04T07:00:54.803Z,30.94
2018-09-04T07:01:33.084Z,30.98
2018-09-04T07:02:11.148Z,31.06
2018-09-04T07:02:49.118Z,31.07
2018-09-04T07:03:27.132Z,31.05
2018-09-04T07:04:05.049Z,31.02
2018-09-04T07:04:43.113Z,31.03
2018-09-04T07:05:21.097Z,31.11
2018-09-04T07:05:59.132Z,31.12
2018-09-04T07:06:37.372Z,31.17
2018-09-04T07:07:15.697Z,31.21
2018-09-04T07:07:53.887Z,31.25
2018-09-04T07:08:31.931Z,31.34
2018-09-04T07:09:13.733Z,31.38
2018-09-04T07:09:51.754Z,31.45
2018-09-04T07:10:29.700Z,31.52
2018-09-04T07:11:07.710Z,31.56
2018-09-04T07:11:46.727Z,31.52
2018-09-04T07:12:24.734Z,31.56
2018-09-04T07:13:02.961Z,31.56
2018-09-04T07:13:40.938Z,31.57
2018-09-04T07:14:18.913Z,31.52
2018-09-04T07:14:57.139Z,31.42
2018-09-04T07:15:35.121Z,31.35
2018-09-04T07:16:13.215Z,31.35
2018-09-04T07:16:51.194Z,31.29
2018-09-04T07:17:29.153Z,31.30
2018-09-04T07:18:07.358Z,31.20
2018-09-04T07:18:45.508Z,31.07
2018-09-04T07:19:23.603Z,31.03
2018-09-04T07:20:06.079Z,31.03
2018-09-04T07:20:44.126Z,31.01
2018-09-04T07:21:22.128Z,30.91
2018-09-04T07:22:00.067Z,30.80
2018-09-04T07:22:38.018Z,30.84
2018-09-04T07:23:15.959Z,30.75
2018-09-04T07:23:53.859Z,30.74
2018-09-04T07:24:31.824Z,30.72
2018-09-04T07:25:09.755Z,30.65
2018-09-04T07:25:47.725Z,30.67
2018-09-04T07:26:25.733Z,30.70
2018-09-04T07:27:03.658Z,30.72
2018-09-04T07:27:41.621Z,30.59
2018-09-04T07:28:19.583Z,30.56
2018-09-04T07:28:57.692Z,30.54
2018-09-04T07:29:35.601Z,30.53
2018-09-04T07:30:13.546Z,30.55
2018-09-04T07:30:51.626Z,30.56
2018-09-04T07:31:29.574Z,30.56
2018-09-04T07:32:07.639Z,30.57
2018-09-04T07:32:45.809Z,30.59
2018-09-04T07:33:23.994Z,30.61
2018-09-04T07:34:02.214Z,30.56
2018-09-04T07:34:40.279Z,30.60
2018-09-04T07:35:18.115Z,30.59
2018-09-04T07:35:56.056Z,30.62
2018-09-04T07:36:35.662Z,30.61
2018-09-04T07:37:13.852Z,30.58
2018-09-04T07:37:51.728Z,30.52
2018-09-04T07:38:29.708Z,30.45
2018-09-04T07:39:09.572Z,30.45
2018-09-04T07:40:29.541Z,30.44
2018-09-04T07:41:07.469Z,30.37
2018-09-04T07:41:46.602Z,30.34
2018-09-04T07:42:24.530Z,30.26
2018-09-04T07:43:02.472Z,30.21
2018-09-04T07:43:40.533Z,30.16
2018-09-04T07:44:18.559Z,30.12
2018-09-04T07:44:56.561Z,30.11
2018-09-04T07:45:34.673Z,30.03
2018-09-04T07:46:12.640Z,29.91
2018-09-04T07:46:50.703Z,29.90
2018-09-04T07:47:28.609Z,29.80
2018-09-04T07:48:06.546Z,29.68
2018-09-04T07:48:44.458Z,29.61
2018-09-04T07:49:22.631Z,29.46
2018-09-04T07:50:00.668Z,29.40
2018-09-04T07:50:38.712Z,29.26
2018-09-04T07:51:16.754Z,29.15
2018-09-04T07:51:54.732Z,29.03
2018-09-04T07:52:32.768Z,28.93
2018-09-04T07:53:10.627Z,28.76
2018-09-04T07:53:48.739Z,28.67
2018-09-04T07:54:26.770Z,28.49
2018-09-04T07:55:04.787Z,28.36
2018-09-04T07:55:42.857Z,28.18
2018-09-04T07:56:21.270Z,27.91
2018-09-04T07:56:59.787Z,27.73
2018-09-04T07:57:37.891Z,27.58
2018-09-04T07:58:19.246Z,27.33
2018-09-04T07:58:57.755Z,27.19
2018-09-04T07:59:55.179Z,27.02
2018-09-04T08:00:34.218Z,26.83
2018-09-04T08:01:12.166Z,26.67
2018-09-04T08:01:51.236Z,26.53
2018-09-04T08:02:29.277Z,26.41
2018-09-04T08:03:07.291Z,26.32
2018-09-04T08:03:45.538Z,26.33
2018-09-04T08:04:25.495Z,26.26
2018-09-04T08:05:04.316Z,26.28
2018-09-04T08:06:07.865Z,26.27
2018-09-04T08:06:54.944Z,26.23
2018-09-04T08:07:32.914Z,26.22
2018-09-04T08:08:20.592Z,26.22
2018-09-04T08:08:59.626Z,26.20
2018-09-04T08:09:38.952Z,26.17
2018-09-04T08:10:18.471Z,26.14
2018-09-04T08:10:56.577Z,26.08
2018-09-04T08:11:38.451Z,26.09
2018-09-04T08:12:28.037Z,26.09
2018-09-04T08:13:23.683Z,26.09
2018-09-04T08:14:01.547Z,26.13
2018-09-04T08:15:05.465Z,26.12
2018-09-04T08:15:44.806Z,26.09
2018-09-04T08:16:22.823Z,26.09
2018-09-04T08:17:01.111Z,26.12
2018-09-04T08:17:39.144Z,26.13
2018-09-04T08:18:17.169Z,26.12
2018-09-04T08:18:55.232Z,26.13
2018-09-04T08:19:33.203Z,26.15